Time;durP1;ratioP1;P1;durP2;ratioP2;P2;SDS_P1;SDS_P2;PMS_P1;PMS_P2;Temp;Humidity;BMP_temperature;BMP_pressure;BME280_temperature;BME280_humidity;BME280_pressure;Samples;Min_cycle;Max_cycle;Signal;HPM_P1;HPM_P2
2021/06/19 00:00:21;;;;;;;14.13;11.10;;;19.80;99.90;;;;;;4455994;32;20154;-66
2021/06/19 00:02:48;;;;;;;13.97;11.13;;;19.90;99.90;;;;;;4455843;32;20139;-66
2021/06/19 00:05:15;;;;;;;14.30;10.67;;;19.80;99.90;;;;;;4454340;32;20566;-67
2021/06/19 00:07:42;;;;;;;14.50;11.67;;;19.70;99.90;;;;;;4457243;32;20168;-66
2021/06/19 00:10:11;;;;;;;14.73;11.20;;;19.60;99.90;;;;;;4458317;32;20209;-66
2021/06/19 00:12:39;;;;;;;15.33;10.60;;;19.70;99.90;;;;;;4458382;32;20402;-65
2021/06/19 00:15:08;;;;;;;17.03;10.77;;;19.60;99.90;;;;;;4457303;32;20142;-66
2021/06/19 00:17:35;;;;;;;14.40;10.70;;;19.60;99.90;;;;;;4457273;32;20197;-66
2021/06/19 00:20:17;;;;;;;15.97;11.03;;;19.50;99.90;;;;;;4457686;32;20149;-66
2021/06/19 00:22:46;;;;;;;14.97;10.97;;;19.50;99.90;;;;;;4457458;32;20411;-66
2021/06/19 00:25:15;;;;;;;12.93;10.73;;;19.40;99.90;;;;;;4457477;32;20381;-66
2021/06/19 00:27:42;;;;;;;16.00;11.30;;;19.50;99.90;;;;;;4458497;32;20130;-65
2021/06/19 00:30:10;;;;;;;15.90;11.60;;;19.40;99.90;;;;;;4454464;32;20191;-66
2021/06/19 00:32:38;;;;;;;16.07;11.20;;;19.30;99.90;;;;;;4445222;32;20178;-66
2021/06/19 00:35:06;;;;;;;18.70;12.10;;;19.30;99.90;;;;;;4441315;32;20161;-66
2021/06/19 00:37:34;;;;;;;16.00;11.70;;;19.20;99.90;;;;;;4441398;32;20154;-67
2021/06/19 00:40:04;;;;;;;17.00;11.53;;;19.30;99.90;;;;;;4441855;32;20158;-66
2021/06/19 00:42:31;;;;;;;13.93;10.87;;;19.30;99.90;;;;;;4442023;32;20147;-66
2021/06/19 00:44:58;;;;;;;17.63;11.27;;;19.20;99.90;;;;;;4441262;32;20207;-66
2021/06/19 00:47:26;;;;;;;13.83;11.50;;;19.20;99.90;;;;;;4442930;32;20134;-66
2021/06/19 00:49:53;;;;;;;15.83;11.30;;;19.10;99.90;;;;;;4443008;32;20165;-67
2021/06/19 00:52:21;;;;;;;15.53;11.70;;;19.10;99.90;;;;;;4442874;32;20186;-67
2021/06/19 00:54:48;;;;;;;16.77;11.97;;;19.10;99.90;;;;;;4443039;32;20162;-67
2021/06/19 00:57:15;;;;;;;13.50;11.03;;;19.00;99.90;;;;;;4442101;32;20226;-67
2021/06/19 00:59:43;;;;;;;17.90;12.10;;;19.00;99.90;;;;;;4441083;32;20414;-65
2021/06/19 01:02:10;;;;;;;14.33;11.83;;;18.90;99.90;;;;;;4440668;32;20256;-67
2021/06/19 01:04:37;;;;;;;14.83;11.70;;;18.90;99.90;;;;;;4440157;32;20147;-67
2021/06/19 01:07:04;;;;;;;14.83;12.13;;;18.90;99.90;;;;;;4440006;32;20551;-65
2021/06/19 01:09:31;;;;;;;17.13;12.93;;;18.90;99.90;;;;;;4438555;32;20176;-65
2021/06/19 01:11:58;;;;;;;16.47;12.57;;;18.80;99.90;;;;;;4438658;32;20668;-67
2021/06/19 01:14:25;;;;;;;16.47;12.03;;;18.80;99.90;;;;;;4440326;32;20166;-65
2021/06/19 01:16:52;;;;;;;15.47;12.60;;;18.70;99.90;;;;;;4441379;32;20143;-66
2021/06/19 01:19:19;;;;;;;16.03;13.00;;;18.70;99.90;;;;;;4442228;32;20199;-66
2021/06/19 01:21:52;;;;;;;15.03;12.10;;;18.70;99.90;;;;;;4455071;32;20150;-65
2021/06/19 01:24:21;;;;;;;15.73;12.40;;;18.60;99.90;;;;;;4442410;32;20380;-66
2021/06/19 01:26:49;;;;;;;14.60;12.07;;;18.60;99.90;;;;;;4442340;32;20147;-66
2021/06/19 01:29:16;;;;;;;17.83;12.40;;;18.60;99.90;;;;;;4440718;32;20142;-65
2021/06/19 01:31:43;;;;;;;16.50;11.97;;;18.60;99.90;;;;;;4442244;32;20159;-65
2021/06/19 01:34:10;;;;;;;15.87;12.40;;;18.50;99.90;;;;;;4440618;32;20284;-67
2021/06/19 01:36:37;;;;;;;16.13;12.67;;;18.50;99.90;;;;;;4441125;32;20154;-66
2021/06/19 01:39:08;;;;;;;15.33;12.17;;;18.50;99.90;;;;;;4440598;32;20154;-66
2021/06/19 01:41:35;;;;;;;16.50;12.80;;;18.50;99.90;;;;;;4442068;32;20403;-67
2021/06/19 01:44:05;;;;;;;16.93;13.10;;;18.40;99.90;;;;;;4440639;32;20146;-67
2021/06/19 01:46:36;;;;;;;15.73;12.93;;;18.40;99.90;;;;;;4443885;32;20188;-67
2021/06/19 01:49:03;;;;;;;17.80;13.33;;;18.40;99.90;;;;;;4456157;32;20539;-67
2021/06/19 01:51:30;;;;;;;15.93;12.47;;;18.40;99.90;;;;;;4457418;32;20174;-68
2021/06/19 01:53:57;;;;;;;16.83;12.90;;;18.30;99.90;;;;;;4457347;32;20341;-67
2021/06/19 01:56:25;;;;;;;16.90;13.20;;;18.40;99.90;;;;;;4457420;32;20190;-67
2021/06/19 01:58:52;;;;;;;17.30;12.27;;;18.30;99.90;;;;;;4455741;32;20176;-66
2021/06/19 02:01:19;;;;;;;16.47;13.20;;;18.30;99.90;;;;;;4457241;32;20165;-66
2021/06/19 02:03:49;;;;;;;16.73;12.63;;;18.20;99.90;;;;;;4455732;32;20197;-66
2021/06/19 02:06:17;;;;;;;16.73;12.67;;;18.20;99.90;;;;;;4455627;32;20142;-66
2021/06/19 02:09:09;;;;;;;15.30;12.43;;;18.20;99.90;;;;;;4457212;32;20183;-66
2021/06/19 02:11:36;;;;;;;20.17;12.73;;;18.20;99.90;;;;;;4455592;32;20143;-66
2021/06/19 02:14:05;;;;;;;17.13;13.67;;;18.20;99.90;;;;;;4456195;32;20190;-66
2021/06/19 02:16:31;;;;;;;15.47;13.20;;;18.10;99.90;;;;;;4456356;32;20467;-66
2021/06/19 02:18:59;;;;;;;17.30;12.73;;;18.00;99.90;;;;;;4456223;32;20142;-66
2021/06/19 02:21:25;;;;;;;16.53;13.20;;;18.00;99.90;;;;;;4456901;32;20138;-66
2021/06/19 02:23:52;;;;;;;14.77;12.90;;;18.00;99.90;;;;;;4455343;32;20134;-66
2021/06/19 02:26:19;;;;;;;16.13;13.13;;;18.00;99.90;;;;;;4455303;32;20147;-66
2021/06/19 02:28:46;;;;;;;19.20;13.10;;;17.90;99.90;;;;;;4456867;32;20168;-65
2021/06/19 02:31:14;;;;;;;20.33;13.60;;;18.00;99.90;;;;;;4456255;32;20183;-66
2021/06/19 02:33:43;;;;;;;15.93;13.37;;;17.90;99.90;;;;;;4456742;32;20181;-66
2021/06/19 02:36:10;;;;;;;16.80;13.47;;;17.90;99.90;;;;;;4456098;32;20223;-66
2021/06/19 02:38:36;;;;;;;17.83;13.63;;;17.90;99.90;;;;;;4455138;32;20138;-65
2021/06/19 02:41:03;;;;;;;20.37;13.70;;;17.90;99.90;;;;;;4456660;32;20139;-65
2021/06/19 02:43:30;;;;;;;15.17;13.03;;;17.90;99.90;;;;;;4455097;32;20146;-65
2021/06/19 02:45:59;;;;;;;16.80;12.83;;;17.90;99.90;;;;;;4455312;32;20265;-65
2021/06/19 02:48:27;;;;;;;19.00;14.20;;;17.90;99.90;;;;;;4456589;32;20146;-66
2021/06/19 02:50:55;;;;;;;21.53;14.37;;;18.00;99.90;;;;;;4456576;32;20138;-64
2021/06/19 02:53:21;;;;;;;15.93;13.53;;;18.00;99.90;;;;;;4456481;32;20481;-65
2021/06/19 02:55:48;;;;;;;17.83;13.57;;;18.00;99.90;;;;;;4456370;32;20139;-65
2021/06/19 02:58:16;;;;;;;17.83;14.40;;;18.00;99.90;;;;;;4455814;32;20386;-66
2021/06/19 03:00:44;;;;;;;16.27;14.03;;;18.00;99.90;;;;;;4455111;32;20194;-65
2021/06/19 03:03:10;;;;;;;18.47;14.43;;;18.00;99.90;;;;;;4455644;32;20150;-65
2021/06/19 03:05:38;;;;;;;17.93;15.07;;;18.00;99.90;;;;;;4456309;32;20135;-65
2021/06/19 03:08:06;;;;;;;19.13;14.70;;;18.00;99.90;;;;;;4456369;32;20138;-66
2021/06/19 03:10:36;;;;;;;18.87;13.87;;;18.00;99.90;;;;;;4454838;32;20218;-66
2021/06/19 03:13:04;;;;;;;19.67;13.97;;;18.10;99.90;;;;;;4455226;32;20410;-66
2021/06/19 03:15:31;;;;;;;17.83;13.97;;;18.10;99.90;;;;;;4455469;32;20134;-65
2021/06/19 03:17:58;;;;;;;18.30;13.40;;;18.10;99.90;;;;;;4456174;32;20138;-65
2021/06/19 03:20:25;;;;;;;15.77;14.07;;;18.10;99.90;;;;;;4456156;32;20453;-65
2021/06/19 03:22:58;;;;;;;18.13;13.27;;;18.10;99.90;;;;;;4454767;32;20436;-65
2021/06/19 03:25:27;;;;;;;17.70;13.60;;;18.20;99.90;;;;;;4455787;32;20168;-66
2021/06/19 03:27:56;;;;;;;15.70;12.83;;;18.10;99.90;;;;;;4454720;32;20213;-66
2021/06/19 03:30:24;;;;;;;16.43;13.37;;;18.20;99.90;;;;;;4456167;32;20159;-66
2021/06/19 03:32:51;;;;;;;16.87;13.47;;;18.20;99.90;;;;;;4454626;32;20162;-66
2021/06/19 03:35:19;;;;;;;16.10;13.50;;;18.30;99.90;;;;;;4456167;32;20191;-66
2021/06/19 03:37:47;;;;;;;16.27;13.77;;;18.30;99.90;;;;;;4454296;32;20207;-66
2021/06/19 03:40:16;;;;;;;18.20;12.87;;;18.30;99.90;;;;;;4456027;32;20213;-66
2021/06/19 03:42:45;;;;;;;15.70;13.20;;;18.40;99.90;;;;;;4459102;32;20141;-66
2021/06/19 03:45:13;;;;;;;18.03;13.97;;;18.50;99.90;;;;;;4459221;32;20547;-66
2021/06/19 03:47:42;;;;;;;16.23;12.87;;;18.50;99.90;;;;;;4458214;32;20142;-65
2021/06/19 03:50:14;;;;;;;20.57;13.10;;;18.60;99.90;;;;;;4457625;32;20135;-66
2021/06/19 03:52:44;;;;;;;15.43;12.43;;;18.60;99.90;;;;;;4457854;32;20455;-66
2021/06/19 03:55:12;;;;;;;15.40;12.10;;;18.70;99.90;;;;;;4459143;32;20221;-66
2021/06/19 03:57:39;;;;;;;16.37;12.27;;;18.80;99.90;;;;;;4459103;32;20164;-66
2021/06/19 04:00:08;;;;;;;16.83;11.97;;;18.80;99.90;;;;;;4459170;32;20181;-67
2021/06/19 04:02:35;;;;;;;16.10;11.40;;;19.00;99.90;;;;;;4457502;32;20378;-66
2021/06/19 04:05:02;;;;;;;14.83;11.50;;;19.00;99.90;;;;;;4457413;32;20177;-66
2021/06/19 04:07:30;;;;;;;15.17;12.07;;;19.00;99.90;;;;;;4458913;32;20199;-66
2021/06/19 04:09:56;;;;;;;15.23;11.13;;;19.10;99.90;;;;;;4458729;32;20376;-66
2021/06/19 04:12:25;;;;;;;13.80;11.33;;;19.20;99.90;;;;;;4457978;32;20165;-66
2021/06/19 04:14:52;;;;;;;14.30;10.97;;;19.30;99.90;;;;;;4458152;32;20170;-66
2021/06/19 04:17:19;;;;;;;15.40;11.13;;;19.40;99.90;;;;;;4458685;32;20142;-66
2021/06/19 04:19:47;;;;;;;13.77;10.53;;;19.40;99.90;;;;;;4456880;32;20210;-66
2021/06/19 04:22:15;;;;;;;12.33;10.73;;;19.50;99.90;;;;;;4457725;32;20142;-66
2021/06/19 04:24:42;;;;;;;14.60;10.70;;;19.60;99.90;;;;;;4458506;32;20166;-66
2021/06/19 04:27:20;;;;;;;15.03;11.07;;;19.60;99.90;;;;;;4458068;32;20153;-66
2021/06/19 04:29:48;;;;;;;13.60;10.87;;;19.70;99.90;;;;;;4456980;32;20203;-66
2021/06/19 04:32:16;;;;;;;12.60;10.40;;;19.80;99.90;;;;;;4458078;32;20540;-65
2021/06/19 04:34:44;;;;;;;15.90;10.83;;;19.80;99.90;;;;;;4457986;32;20176;-65
2021/06/19 04:37:12;;;;;;;17.57;10.47;;;19.90;99.90;;;;;;4457041;32;20161;-65
2021/06/19 04:39:54;;;;;;;11.83;10.13;;;20.00;99.90;;;;;;4456891;32;20150;-65
2021/06/19 04:42:23;;;;;;;14.40;9.97;;;20.00;99.90;;;;;;4458514;32;20150;-66
2021/06/19 04:47:24;;;;;;;13.87;9.83;;;20.10;99.90;;;;;;4456637;32;20149;-65
2021/06/19 04:49:53;;;;;;;12.67;9.67;;;20.20;99.90;;;;;;4458407;32;20464;-66
2021/06/19 04:52:21;;;;;;;13.50;9.83;;;20.30;99.90;;;;;;4456551;32;20138;-66
2021/06/19 04:54:49;;;;;;;12.30;9.37;;;20.40;99.90;;;;;;4458012;32;20537;-66
2021/06/19 04:57:16;;;;;;;12.27;9.43;;;20.50;99.90;;;;;;4458293;32;20379;-66
2021/06/19 04:59:43;;;;;;;11.43;9.43;;;20.50;99.90;;;;;;4456900;32;20146;-66
2021/06/19 05:02:10;;;;;;;14.23;9.77;;;20.70;99.90;;;;;;4456554;32;20158;-66
2021/06/19 05:04:38;;;;;;;10.73;9.23;;;20.80;99.90;;;;;;4458425;32;20147;-66
2021/06/19 05:07:05;;;;;;;12.80;8.93;;;20.80;99.90;;;;;;4456555;32;20146;-66
2021/06/19 05:09:32;;;;;;;11.77;9.10;;;20.90;99.90;;;;;;4458351;32;20232;-67
2021/06/19 05:11:59;;;;;;;12.13;8.67;;;21.00;99.90;;;;;;4458004;32;20146;-67
2021/06/19 05:14:26;;;;;;;10.73;9.03;;;21.10;99.90;;;;;;4456898;32;20172;-67
2021/06/19 05:16:54;;;;;;;12.53;9.27;;;21.10;99.90;;;;;;4456543;32;20221;-67
2021/06/19 05:19:25;;;;;;;10.63;9.17;;;21.20;99.90;;;;;;4458158;32;20178;-66
2021/06/19 05:21:53;;;;;;;11.03;8.73;;;21.40;99.90;;;;;;4456288;32;20228;-66
2021/06/19 05:24:20;;;;;;;11.27;9.00;;;21.50;99.90;;;;;;4457756;32;20157;-66
2021/06/19 05:26:48;;;;;;;13.17;9.17;;;21.60;99.90;;;;;;4457603;32;20187;-66
2021/06/19 05:29:15;;;;;;;12.77;8.80;;;21.60;99.90;;;;;;4457727;32;20226;-66
2021/06/19 05:31:41;;;;;;;12.40;8.97;;;21.80;99.90;;;;;;4456526;32;20176;-67
2021/06/19 05:34:08;;;;;;;11.47;8.77;;;21.80;99.90;;;;;;4457799;32;20165;-67
2021/06/19 05:36:35;;;;;;;12.37;8.67;;;21.90;99.90;;;;;;4456376;32;20166;-67
2021/06/19 05:39:03;;;;;;;9.70;8.13;;;22.00;99.90;;;;;;4456686;32;20194;-67
2021/06/19 05:41:30;;;;;;;10.55;8.05;;;22.10;99.90;;;;;;4457558;32;20496;-67
2021/06/19 05:43:57;;;;;;;12.17;8.27;;;22.20;99.90;;;;;;4457591;32;20404;-67
2021/06/19 05:46:24;;;;;;;11.68;8.98;;;22.30;99.90;;;;;;4457617;32;20201;-67
2021/06/19 05:48:56;;;;;;;12.20;8.17;;;22.40;99.90;;;;;;4457671;32;20245;-67
2021/06/19 05:51:23;;;;;;;10.27;8.47;;;22.40;99.90;;;;;;4456155;32;20173;-67
2021/06/19 05:53:51;;;;;;;10.27;8.47;;;22.40;99.90;;;;;;4455696;32;20442;-67
2021/06/19 05:56:21;;;;;;;10.70;8.50;;;22.50;99.90;;;;;;4455710;32;20161;-66
2021/06/19 05:58:47;;;;;;;10.13;8.40;;;22.50;99.90;;;;;;4456435;32;20165;-66
2021/06/19 06:01:14;;;;;;;10.98;8.32;;;22.70;99.90;;;;;;4455568;32;20189;-66
2021/06/19 06:06:43;;;;;;;10.52;8.15;;;22.90;99.90;;;;;;4248308;33;20250;-68
2021/06/19 06:09:10;;;;;;;13.48;7.97;;;23.00;99.90;;;;;;4264291;33;20253;-68
2021/06/19 06:11:37;;;;;;;11.20;8.05;;;23.10;99.90;;;;;;4264147;33;20492;-66
2021/06/19 06:14:04;;;;;;;9.18;7.80;;;23.20;99.90;;;;;;4264210;33;20227;-67
2021/06/19 06:16:31;;;;;;;10.88;7.55;;;23.30;99.90;;;;;;4262732;33;20154;-69
2021/06/19 06:18:59;;;;;;;11.40;7.97;;;23.40;99.90;;;;;;4264113;33;20194;-67
2021/06/19 06:21:26;;;;;;;9.15;7.62;;;23.40;99.90;;;;;;4264028;33;20159;-67
2021/06/19 06:23:53;;;;;;;11.65;8.00;;;23.50;99.90;;;;;;4263588;33;20343;-64
2021/06/19 06:26:20;;;;;;;10.57;7.53;;;23.60;99.90;;;;;;4263381;33;20146;-65
2021/06/19 06:28:46;;;;;;;9.55;7.72;;;23.70;99.90;;;;;;4262620;33;20201;-65
2021/06/19 06:45:26;;;;;;;51.92;13.55;;;23.80;99.90;;;;;;4452954;32;20295;-66
2021/06/19 06:47:54;;;;;;;78.00;13.35;;;24.60;99.90;;;;;;4453830;32;20175;-66
2021/06/19 06:50:21;;;;;;;64.55;11.80;;;24.60;99.90;;;;;;4453780;32;20143;-66
2021/06/19 06:52:48;;;;;;;11.48;7.95;;;24.70;99.90;;;;;;4452452;32;20185;-66
2021/06/19 06:55:15;;;;;;;10.35;7.00;;;24.80;99.90;;;;;;4453603;32;20139;-65
2021/06/19 06:57:44;;;;;;;9.95;6.85;;;24.80;99.90;;;;;;4453625;32;20138;-66
2021/06/19 07:00:12;;;;;;;10.65;7.00;;;24.90;99.90;;;;;;4453892;32;20198;-66
2021/06/19 07:02:41;;;;;;;9.07;6.43;;;25.00;99.90;;;;;;4452018;32;20150;-66
2021/06/19 07:05:09;;;;;;;9.43;6.22;;;25.10;99.90;;;;;;4452502;32;20462;-66
2021/06/19 07:07:37;;;;;;;18.05;6.80;;;25.20;99.50;;;;;;4453269;32;20413;-66
2021/06/19 07:10:06;;;;;;;14.65;6.62;;;25.20;99.20;;;;;;4453099;32;20468;-66
2021/06/19 07:12:35;;;;;;;22.75;7.25;;;25.20;99.00;;;;;;4453458;32;20426;-65
2021/06/19 07:15:04;;;;;;;9.05;5.78;;;25.30;98.60;;;;;;4453376;32;20150;-66
2021/06/19 07:17:31;;;;;;;12.40;6.65;;;25.40;96.90;;;;;;4453313;32;20193;-66
2021/06/19 07:19:58;;;;;;;8.25;5.82;;;25.50;97.30;;;;;;4453188;32;20261;-66
2021/06/19 07:22:24;;;;;;;13.77;6.30;;;25.60;96.40;;;;;;4453004;32;20187;-66
2021/06/19 07:24:51;;;;;;;19.12;7.62;;;25.60;95.50;;;;;;4453123;32;20297;-65
2021/06/19 07:27:18;;;;;;;9.95;6.30;;;25.80;95.50;;;;;;4453047;32;20215;-65
2021/06/19 07:29:45;;;;;;;58.38;13.43;;;25.80;94.30;;;;;;4452971;32;20161;-66
2021/06/19 07:32:12;;;;;;;16.37;7.30;;;25.80;95.90;;;;;;4453014;32;20154;-66
2021/06/19 07:34:39;;;;;;;30.33;8.68;;;26.00;95.10;;;;;;4453394;32;20166;-66
2021/06/19 07:37:06;;;;;;;30.73;9.30;;;26.00;95.60;;;;;;4453574;32;20195;-66
2021/06/19 07:39:33;;;;;;;25.30;7.70;;;26.20;95.60;;;;;;4451615;32;20388;-66
2021/06/19 07:42:00;;;;;;;34.08;9.05;;;26.20;94.50;;;;;;4452628;32;20234;-66
2021/06/19 07:44:27;;;;;;;29.87;8.20;;;26.40;92.90;;;;;;4449378;32;20433;-67
2021/06/19 07:46:54;;;;;;;14.32;6.65;;;26.40;95.10;;;;;;4442347;32;20157;-66
2021/06/19 07:49:21;;;;;;;27.55;7.68;;;26.50;93.10;;;;;;4442564;32;20161;-65
2021/06/19 07:51:48;;;;;;;10.07;6.00;;;26.60;93.70;;;;;;4442456;32;20195;-65
2021/06/19 07:54:16;;;;;;;9.23;5.50;;;26.60;92.40;;;;;;4439895;32;20162;-65
2021/06/19 07:56:43;;;;;;;7.50;5.43;;;26.70;90.10;;;;;;4441702;32;20162;-66
2021/06/19 07:59:10;;;;;;;7.20;5.30;;;26.70;91.00;;;;;;4440980;32;20352;-66
2021/06/19 08:01:37;;;;;;;14.57;6.35;;;26.80;91.40;;;;;;4438739;32;20433;-65
2021/06/19 08:04:04;;;;;;;34.55;7.90;;;26.90;91.50;;;;;;4440795;32;20146;-66
2021/06/19 08:06:31;;;;;;;26.02;7.68;;;27.00;92.70;;;;;;4442333;32;20134;-66
2021/06/19 08:09:01;;;;;;;16.10;6.45;;;27.00;94.80;;;;;;4440997;32;20379;-66
2021/06/19 08:11:28;;;;;;;12.30;6.43;;;27.20;93.00;;;;;;4442537;32;20185;-66
2021/06/19 08:13:54;;;;;;;13.15;7.12;;;27.30;92.50;;;;;;4442318;32;20448;-65
2021/06/19 08:16:22;;;;;;;15.10;7.18;;;27.40;90.60;;;;;;4441327;32;20204;-66
2021/06/19 08:18:49;;;;;;;17.90;7.25;;;27.40;91.20;;;;;;4442374;32;20178;-66
2021/06/19 08:21:16;;;;;;;21.00;6.40;;;27.50;90.90;;;;;;4442223;32;20134;-64
2021/06/19 08:23:43;;;;;;;16.95;6.75;;;27.50;88.60;;;;;;4442373;32;20143;-68
2021/06/19 08:26:09;;;;;;;7.70;5.45;;;27.70;90.50;;;;;;4440696;32;20440;-68
2021/06/19 08:28:36;;;;;;;14.02;5.93;;;28.50;85.70;;;;;;4439974;32;20191;-69
2021/06/19 08:31:03;;;;;;;8.70;5.03;;;29.30;82.30;;;;;;4442023;32;20184;-69
2021/06/19 08:33:31;;;;;;;12.55;5.03;;;29.90;80.00;;;;;;4440766;32;20150;-69
2021/06/19 08:35:58;;;;;;;9.20;5.43;;;30.60;77.90;;;;;;4441098;32;20173;-69
2021/06/19 08:38:25;;;;;;;7.72;4.82;;;31.20;74.30;;;;;;4438797;32;20166;-69
2021/06/19 08:40:53;;;;;;;9.77;5.18;;;31.30;71.60;;;;;;4439606;32;20142;-70
2021/06/19 08:43:20;;;;;;;9.05;5.15;;;31.60;69.50;;;;;;4440281;32;20216;-70
2021/06/19 08:45:50;;;;;;;9.57;4.75;;;31.70;70.30;;;;;;4440657;32;20191;-69
2021/06/19 08:48:18;;;;;;;12.15;5.03;;;31.90;68.90;;;;;;4440267;32;20215;-70
2021/06/19 08:50:46;;;;;;;10.20;5.05;;;32.10;67.50;;;;;;4440137;32;20406;-70
2021/06/19 08:53:13;;;;;;;43.97;7.30;;;32.30;67.80;;;;;;4440139;32;20165;-71
2021/06/19 08:55:40;;;;;;;14.40;5.05;;;32.50;67.30;;;;;;4441574;32;20467;-72
2021/06/19 08:58:07;;;;;;;7.10;4.65;;;32.70;64.80;;;;;;4439406;32;20188;-71
2021/06/19 09:00:34;;;;;;;16.48;5.50;;;32.90;63.90;;;;;;4439729;32;20142;-71
2021/06/19 09:03:01;;;;;;;6.45;4.85;;;33.00;63.70;;;;;;4440632;32;20154;-72
2021/06/19 09:05:30;;;;;;;8.63;4.65;;;33.20;62.90;;;;;;4439861;32;20355;-72
2021/06/19 09:08:18;;;;;;;8.65;4.65;;;33.00;61.30;;;;;;4441331;32;20161;-71
2021/06/19 09:10:46;;;;;;;5.40;4.60;;;33.10;63.20;;;;;;4439945;32;20448;-72
2021/06/19 09:13:19;;;;;;;5.28;4.47;;;33.10;62.40;;;;;;4439901;32;20187;-76
2021/06/19 09:15:50;;;;;;;11.27;5.78;;;32.80;62.90;;;;;;4440229;32;20471;-74
2021/06/19 09:18:20;;;;;;;22.60;6.18;;;32.50;64.70;;;;;;4441572;32;20131;-74
2021/06/19 09:20:54;;;;;;;7.90;5.43;;;32.60;66.20;;;;;;4441626;32;20226;-67
2021/06/19 09:23:42;;;;;;;6.87;4.80;;;32.50;64.80;;;;;;4441532;32;20142;-69
2021/06/19 09:26:22;;;;;;;5.47;4.57;;;32.50;63.70;;;;;;4440130;32;20188;-66
2021/06/19 09:29:15;;;;;;;22.98;5.80;;;32.80;65.20;;;;;;4441466;32;20178;-69
2021/06/19 09:31:53;;;;;;;7.25;5.15;;;33.00;65.50;;;;;;4439808;32;20143;-68
2021/06/19 09:34:26;;;;;;;18.45;5.72;;;33.10;62.40;;;;;;4440153;32;20340;-66
2021/06/19 09:36:56;;;;;;;6.18;4.40;;;33.10;62.90;;;;;;4441152;32;20154;-68
2021/06/19 09:39:29;;;;;;;8.88;4.80;;;33.10;61.60;;;;;;4441120;32;20206;-69
2021/06/19 09:42:02;;;;;;;7.82;4.90;;;33.30;60.10;;;;;;4439806;32;20131;-65
2021/06/19 09:44:46;;;;;;;8.98;4.25;;;33.30;59.80;;;;;;4439953;32;20189;-68
2021/06/19 09:47:19;;;;;;;4.90;4.03;;;33.60;58.20;;;;;;4440251;32;20184;-66
2021/06/19 09:49:48;;;;;;;6.22;3.60;;;33.70;56.70;;;;;;4440928;32;20192;-68
2021/06/19 09:52:26;;;;;;;5.22;3.35;;;33.80;56.30;;;;;;4441203;32;20146;-67
2021/06/19 09:54:58;;;;;;;5.22;3.55;;;33.90;55.90;;;;;;4441448;32;20205;-69
2021/06/19 09:57:40;;;;;;;4.32;3.12;;;33.90;55.30;;;;;;4438705;32;20417;-68
2021/06/19 10:00:10;;;;;;;4.97;3.25;;;34.30;53.60;;;;;;4441015;32;20135;-68
2021/06/19 10:02:37;;;;;;;4.57;3.35;;;34.20;53.50;;;;;;4439375;32;20151;-69
2021/06/19 10:05:05;;;;;;;3.28;2.70;;;34.20;54.00;;;;;;4440332;32;20402;-66
2021/06/19 10:07:35;;;;;;;4.62;3.08;;;34.20;53.00;;;;;;4440519;32;20184;-69
2021/06/19 10:10:06;;;;;;;5.87;3.40;;;34.30;53.50;;;;;;4438987;32;20452;-66
2021/06/19 10:12:34;;;;;;;3.65;3.35;;;34.30;53.00;;;;;;4440892;32;20197;-70
2021/06/19 10:15:04;;;;;;;3.97;3.58;;;34.50;53.20;;;;;;4440908;32;20143;-66
2021/06/19 10:17:39;;;;;;;8.65;3.72;;;34.90;53.20;;;;;;4439454;32;20403;-68
2021/06/19 10:20:10;;;;;;;5.05;3.78;;;35.10;52.70;;;;;;4439464;32;20372;-68
2021/06/19 10:22:38;;;;;;;5.85;3.78;;;35.20;51.80;;;;;;4440854;32;20486;-69
2021/06/19 10:25:11;;;;;;;6.05;4.10;;;35.40;51.40;;;;;;4439185;32;20143;-69
2021/06/19 10:27:43;;;;;;;3.70;3.28;;;35.40;51.20;;;;;;4440727;32;20428;-69
2021/06/19 10:30:11;;;;;;;6.65;3.42;;;35.50;50.50;;;;;;4441231;32;20151;-69
2021/06/19 10:32:46;;;;;;;10.35;4.10;;;35.40;50.20;;;;;;4439146;32;20173;-74
2021/06/19 10:35:18;;;;;;;6.57;3.72;;;35.50;51.70;;;;;;4439291;32;20154;-74
2021/06/19 10:37:48;;;;;;;5.75;2.78;;;35.60;50.70;;;;;;4439273;32;20165;-75
2021/06/19 10:40:16;;;;;;;3.20;2.80;;;35.70;48.30;;;;;;4440225;32;20143;-75
2021/06/19 10:42:44;;;;;;;7.10;3.30;;;36.10;47.40;;;;;;4438330;32;20444;-74
2021/06/19 10:45:15;;;;;;;6.43;3.30;;;35.90;47.50;;;;;;4439560;32;20246;-76
2021/06/19 10:48:07;;;;;;;4.55;3.42;;;35.90;49.80;;;;;;4438790;32;20459;-74
2021/06/19 10:50:41;;;;;;;5.70;3.60;;;36.20;49.20;;;;;;4434502;32;20521;-75
2021/06/19 10:53:17;;;;;;;5.05;3.40;;;36.20;48.00;;;;;;4432498;32;20236;-77
2021/06/19 10:55:44;;;;;;;5.97;3.47;;;36.10;48.90;;;;;;4435646;32;20180;-77
2021/06/19 10:58:21;;;;;;;5.47;3.70;;;36.20;48.50;;;;;;4436307;32;20197;-77
2021/06/19 11:00:51;;;;;;;4.75;3.67;;;36.50;49.10;;;;;;4435565;32;20481;-77
2021/06/19 11:03:38;;;;;;;6.25;3.70;;;36.70;48.20;;;;;;4436467;32;20202;-76
2021/06/19 11:06:20;;;;;;;3.62;3.28;;;36.90;48.60;;;;;;4436827;32;20199;-76
2021/06/19 11:09:07;;;;;;;3.60;3.30;;;37.00;48.70;;;;;;4440552;32;20337;-78
2021/06/19 11:11:56;;;;;;;5.53;3.80;;;37.20;46.00;;;;;;4440987;32;20210;-78
2021/06/19 11:14:44;;;;;;;8.80;3.90;;;37.00;47.20;;;;;;4440050;32;20135;-78
2021/06/19 11:17:14;;;;;;;5.45;4.12;;;37.50;47.40;;;;;;4440136;32;20162;-77
2021/06/19 11:19:47;;;;;;;4.45;3.35;;;38.10;47.10;;;;;;4439399;32;20147;-78
2021/06/19 11:22:38;;;;;;;4.07;3.60;;;38.30;45.80;;;;;;4443621;32;20535;-77
2021/06/19 11:25:15;;;;;;;4.55;3.58;;;38.50;46.00;;;;;;4442258;32;20399;-76
2021/06/19 11:27:49;;;;;;;4.22;3.70;;;38.30;44.80;;;;;;4443260;32;20188;-77
2021/06/19 11:30:34;;;;;;;4.40;3.50;;;38.50;44.40;;;;;;4441701;32;20179;-77
2021/06/19 11:33:20;;;;;;;4.65;3.60;;;38.50;45.50;;;;;;4441631;32;20409;-76
2021/06/19 11:35:56;;;;;;;4.07;3.65;;;38.70;45.10;;;;;;4443259;32;20150;-76
2021/06/19 11:38:24;;;;;;;5.65;3.60;;;38.80;44.80;;;;;;4442596;32;20229;-76
2021/06/19 11:40:51;;;;;;;4.78;3.72;;;38.80;44.80;;;;;;4441418;32;20305;-77
2021/06/19 11:43:31;;;;;;;5.55;3.95;;;38.90;44.40;;;;;;4441291;32;20384;-76
2021/06/19 11:46:00;;;;;;;3.80;3.50;;;38.90;44.10;;;;;;4442733;32;20213;-76
2021/06/19 11:48:27;;;;;;;4.62;3.72;;;39.20;43.70;;;;;;4441236;32;20162;-76
2021/06/19 11:51:05;;;;;;;3.60;3.30;;;39.30;43.40;;;;;;4442377;32;20442;-76
2021/06/19 11:53:37;;;;;;;6.10;3.75;;;39.40;43.30;;;;;;4441914;32;20139;-76
2021/06/19 11:56:27;;;;;;;6.57;3.70;;;39.10;44.30;;;;;;4440712;32;20271;-76
2021/06/19 11:58:56;;;;;;;5.62;3.78;;;38.90;42.90;;;;;;4442126;32;20181;-75
2021/06/19 12:01:25;;;;;;;4.93;3.50;;;37.90;44.70;;;;;;4441100;32;20490;-75
2021/06/19 12:03:53;;;;;;;7.37;3.85;;;37.50;45.70;;;;;;4440463;32;20167;-75
2021/06/19 12:06:31;;;;;;;4.40;3.60;;;37.40;45.80;;;;;;4442103;32;20182;-75
2021/06/19 12:08:58;;;;;;;5.43;3.67;;;37.50;46.30;;;;;;4440026;32;20210;-75
2021/06/19 12:11:34;;;;;;;4.82;3.95;;;37.70;45.00;;;;;;4440661;32;20154;-75
2021/06/19 12:14:06;;;;;;;4.55;4.15;;;37.70;45.60;;;;;;4442476;32;20150;-75
2021/06/19 12:16:41;;;;;;;6.60;3.90;;;37.80;45.90;;;;;;4440812;32;20173;-74
2021/06/19 12:19:08;;;;;;;4.93;3.53;;;38.10;45.60;;;;;;4440751;32;20235;-75
2021/06/19 12:21:37;;;;;;;4.70;3.80;;;38.60;45.30;;;;;;4441523;32;20184;-75
2021/06/19 12:24:26;;;;;;;4.90;3.80;;;38.80;44.40;;;;;;4440952;32;20131;-77
2021/06/19 12:27:15;;;;;;;4.07;3.65;;;38.60;43.30;;;;;;4442320;32;20214;-75
2021/06/19 12:29:43;;;;;;;4.35;3.50;;;38.00;44.80;;;;;;4440567;32;20134;-77
2021/06/19 12:32:24;;;;;;;5.18;3.65;;;37.70;45.50;;;;;;4442101;32;20166;-77
2021/06/19 12:34:52;;;;;;;6.47;3.85;;;37.40;45.00;;;;;;4442159;32;20186;-77
2021/06/19 12:37:40;;;;;;;8.20;3.92;;;37.20;45.30;;;;;;4440306;32;20532;-77
2021/06/19 12:40:10;;;;;;;5.20;3.90;;;37.40;46.00;;;;;;4440015;32;20181;-78
2021/06/19 12:42:59;;;;;;;5.97;4.12;;;38.20;45.60;;;;;;4440505;32;20138;-75
2021/06/19 12:45:40;;;;;;;4.00;3.60;;;38.80;45.20;;;;;;4441824;32;20147;-78
2021/06/19 12:48:27;;;;;;;5.55;3.80;;;39.40;42.90;;;;;;4441221;32;20409;-76
2021/06/19 12:50:56;;;;;;;4.95;3.47;;;40.10;42.50;;;;;;4440483;32;20177;-76
2021/06/19 12:53:28;;;;;;;4.80;3.37;;;40.40;41.20;;;;;;4441991;32;20162;-76
2021/06/19 12:55:55;;;;;;;4.43;3.40;;;40.90;40.40;;;;;;4439865;32;20226;-77
2021/06/19 12:58:31;;;;;;;4.78;3.22;;;40.30;39.70;;;;;;4440348;32;20166;-77
2021/06/19 13:00:58;;;;;;;7.62;3.47;;;40.00;40.40;;;;;;4442114;32;20191;-78
2021/06/19 13:03:40;;;;;;;4.82;3.10;;;39.60;39.40;;;;;;4441616;32;20217;-78
2021/06/19 13:06:08;;;;;;;6.68;3.00;;;39.90;40.00;;;;;;4440164;32;20376;-78
2021/06/19 13:08:35;;;;;;;9.23;3.70;;;40.20;39.50;;;;;;4440193;32;20155;-78